Time;durP1;ratioP1;P1;durP2;ratioP2;P2;SDS_P1;SDS_P2;PMS_P1;PMS_P2;Temp;Humidity;BMP_temperature;BMP_pressure;BME280_temperature;BME280_humidity;BME280_pressure;Samples;Min_cycle;Max_cycle;Signal;HPM_P1;HPM_P2
2023/01/30 00:03:02;;;;;;;10.02;7.03;;;;;;;5.40;69.56;101588.44;12795758;22;96619;-80
2023/01/30 00:08:06;;;;;;;9.93;7.10;;;;;;;5.23;69.12;101579.72;12793642;22;97086;-80
2023/01/30 00:13:10;;;;;;;66.50;43.33;;;;;;;5.34;69.48;101581.50;12794235;22;96787;-80
2023/01/30 00:18:13;;;;;;;20.55;14.35;;;;;;;5.24;69.99;101589.28;12792309;22;96568;-80
2023/01/30 00:23:18;;;;;;;12.77;9.48;;;;;;;5.22;70.20;101594.50;12793843;22;96603;-80
2023/01/30 00:28:21;;;;;;;76.17;50.80;;;;;;;5.25;69.10;101589.28;12793959;22;96680;-80
2023/01/30 00:33:26;;;;;;;27.45;19.50;;;;;;;5.18;70.07;101591.88;12793833;22;96657;-80
2023/01/30 00:38:30;;;;;;;50.90;32.95;;;;;;;5.26;70.11;101587.56;12793592;22;96499;-80
2023/01/30 00:48:54;;;;;;;22.13;13.40;;;;;;;5.27;69.64;101584.06;12793014;22;96652;-80
2023/01/30 00:53:58;;;;;;;45.88;31.35;;;;;;;5.15;70.71;101579.69;12794126;22;97052;-80
2023/01/30 00:59:02;;;;;;;11.33;8.43;;;;;;;5.04;70.50;101581.38;12793369;22;96514;-80
2023/01/30 01:04:07;;;;;;;69.43;40.55;;;;;;;5.07;70.88;101590.97;12793187;22;96686;-81
2023/01/30 01:09:11;;;;;;;;;;;;;;;4.96;72.59;101597.88;12792538;22;96825;-81
2023/01/30 01:14:15;;;;;;;23.88;16.63;;;;;;;4.90;71.94;101598.72;12792970;22;96612;-81
2023/01/30 01:19:18;;;;;;;74.43;43.95;;;;;;;4.84;72.42;101603.03;12792186;22;96740;-81
2023/01/30 01:24:23;;;;;;;103.95;59.63;;;;;;;4.80;72.97;101607.38;12793615;22;97076;-81
2023/01/30 01:29:26;;;;;;;14.33;8.93;;;;;;;4.75;73.36;101602.97;12795383;22;96602;-80
2023/01/30 01:34:29;;;;;;;35.97;21.73;;;;;;;4.78;72.23;101614.28;12795636;22;96602;-80
2023/01/30 01:45:15;;;;;;;18.20;10.85;;;;;;;5.05;70.92;101626.63;12795543;22;97214;-81
2023/01/30 01:50:23;;;;;;;6.30;4.05;;;;;;;5.34;69.64;101627.59;12794684;22;99196;-80
2023/01/30 01:55:29;;;;;;;11.02;6.75;;;;;;;5.54;67.81;101639.84;12795415;22;97083;-81
2023/01/30 02:00:33;;;;;;;6.93;4.95;;;;;;;5.79;66.86;101643.38;12794216;22;96718;-80
2023/01/30 02:05:41;;;;;;;25.95;16.38;;;;;;;5.80;66.39;101649.50;12795158;22;96601;-81
2023/01/30 02:10:51;;;;;;;14.75;8.85;;;;;;;5.85;65.70;101653.81;12795167;22;96659;-80
2023/01/30 02:15:55;;;;;;;16.80;11.02;;;;;;;5.97;65.35;101660.84;12795087;22;97085;-80
2023/01/30 02:21:21;;;;;;;8.82;5.45;;;;;;;5.97;64.81;101660.84;12794740;22;96831;-80
2023/01/30 02:26:52;;;;;;;12.23;8.32;;;;;;;5.73;66.41;101666.84;12794997;22;97335;-81
2023/01/30 02:32:07;;;;;;;19.20;11.48;;;;;;;5.53;67.04;101666.81;12795067;22;96711;-80
2023/01/30 02:37:23;;;;;;;14.97;10.60;;;;;;;5.35;68.24;101674.56;12795204;22;96890;-81
2023/01/30 02:42:37;;;;;;;22.67;13.45;;;;;;;5.45;66.57;101673.72;12794986;22;96573;-80
2023/01/30 02:47:48;;;;;;;15.20;9.05;;;;;;;5.52;66.77;101675.50;12794889;22;96883;-81
2023/01/30 02:52:52;;;;;;;41.38;23.35;;;;;;;5.49;66.81;101680.72;12793296;22;96458;-79
2023/01/30 02:57:56;;;;;;;35.13;19.73;;;;;;;5.49;66.96;101680.72;12794675;22;96921;-80
2023/01/30 03:03:27;;;;;;;18.83;12.73;;;;;;;5.15;69.20;101676.22;12795246;22;96560;-80
2023/01/30 03:08:40;;;;;;;9.63;6.72;;;;;;;5.07;68.07;101667.47;12792587;22;96697;-81
2023/01/30 03:13:52;;;;;;;18.13;11.15;;;;;;;5.37;66.08;101674.56;12794684;22;97060;-81
2023/01/30 03:18:57;;;;;;;64.97;36.20;;;;;;;5.46;65.86;101669.41;12794043;22;96778;-80
2023/01/30 03:24:00;;;;;;;99.07;52.28;;;;;;;5.57;64.08;101672.94;12794692;22;96596;-80
2023/01/30 03:29:04;;;;;;;42.03;23.90;;;;;;;5.75;63.50;101677.31;12795267;22;97436;-80
2023/01/30 03:34:09;;;;;;;6.90;4.20;;;;;;;5.79;62.72;101666.00;12794142;22;96966;-80
2023/01/30 03:39:12;;;;;;;9.10;5.23;;;;;;;5.92;61.58;101675.63;12794612;22;97347;-81
2023/01/30 03:44:15;;;;;;;4.43;2.35;;;;;;;6.06;60.59;101672.16;12793410;22;96857;-80
2023/01/30 03:49:20;;;;;;;4.85;2.70;;;;;;;6.12;60.04;101677.41;12793476;22;96586;-80
2023/01/30 03:54:23;;;;;;;13.85;9.52;;;;;;;6.05;59.72;101669.53;12794629;22;96825;-80
2023/01/30 03:59:27;;;;;;;6.25;3.15;;;;;;;6.02;59.56;101675.63;12794358;22;96571;-80
2023/01/30 04:04:31;;;;;;;5.40;3.28;;;;;;;6.06;59.38;101658.19;12793973;22;96636;-80
2023/01/30 04:09:34;;;;;;;3.80;2.70;;;;;;;6.03;59.84;101640.81;12794083;22;96958;-80
2023/01/30 04:14:38;;;;;;;3.63;2.45;;;;;;;6.00;59.26;101625.13;12794215;22;96625;-80
2023/01/30 04:19:42;;;;;;;3.05;2.22;;;;;;;5.94;59.40;101616.38;12794599;22;97133;-80
2023/01/30 04:24:45;;;;;;;3.63;2.43;;;;;;;5.94;59.11;101612.06;12793838;22;97443;-80
2023/01/30 04:29:49;;;;;;;6.57;2.38;;;;;;;5.90;59.32;101612.06;12793840;22;96487;-80
2023/01/30 04:34:54;;;;;;;5.15;2.20;;;;;;;5.88;58.88;101609.44;12792723;22;96713;-80
2023/01/30 04:39:57;;;;;;;3.22;2.10;;;;;;;5.84;59.29;101620.75;12794098;22;96597;-80
2023/01/30 04:45:00;;;;;;;4.15;2.55;;;;;;;5.83;59.59;101605.09;12793155;22;96585;-80
2023/01/30 04:50:06;;;;;;;3.40;2.20;;;;;;;5.78;59.82;101610.28;12793150;22;96698;-80
2023/01/30 04:55:10;;;;;;;3.88;2.08;;;;;;;5.75;59.43;101622.47;12793472;22;96515;-80
2023/01/30 05:00:14;;;;;;;4.45;2.47;;;;;;;5.77;59.41;101641.63;12792928;22;96895;-80
2023/01/30 05:05:19;;;;;;;4.97;2.20;;;;;;;5.76;59.22;101642.50;12794033;22;97055;-80
2023/01/30 05:10:22;;;;;;;3.80;2.40;;;;;;;5.77;59.16;101660.78;12794244;22;96572;-80
2023/01/30 05:15:26;;;;;;;4.15;2.30;;;;;;;5.73;59.45;101648.56;12793056;22;96591;-80
2023/01/30 05:20:30;;;;;;;4.75;2.00;;;;;;;5.74;59.50;101650.34;12792890;22;96780;-80
2023/01/30 05:25:34;;;;;;;3.75;2.22;;;;;;;5.62;60.38;101659.00;12791888;22;97302;-80
2023/01/30 05:30:37;;;;;;;3.78;2.20;;;;;;;5.55;60.42;101659.00;12792357;22;96691;-80
2023/01/30 05:35:48;;;;;;;3.78;2.38;;;;;;;5.53;60.02;101659.00;12792816;22;97471;-80
2023/01/30 05:41:00;;;;;;;3.85;1.92;;;;;;;5.51;60.55;101662.44;12792881;22;96803;-80
2023/01/30 05:46:05;;;;;;;2.72;2.00;;;;;;;5.53;60.47;101665.94;12792422;22;96474;-80
2023/01/30 05:51:18;;;;;;;3.17;2.17;;;;;;;5.45;61.42;101662.44;12792202;22;96788;-80
2023/01/30 05:56:21;;;;;;;4.80;2.10;;;;;;;5.44;60.43;101673.72;12792340;22;96607;-80
2023/01/30 06:01:25;;;;;;;3.75;2.60;;;;;;;5.38;60.90;101663.28;12793379;22;97384;-80
2023/01/30 06:06:30;;;;;;;3.10;2.10;;;;;;;5.35;61.62;101673.69;12791661;22;96740;-80
2023/01/30 06:11:34;;;;;;;3.30;2.28;;;;;;;5.35;61.26;101690.22;12793630;22;96622;-80
2023/01/30 06:16:37;;;;;;;3.67;2.30;;;;;;;5.33;61.48;101699.78;12793836;22;96623;-80
2023/01/30 06:21:42;;;;;;;5.93;2.53;;;;;;;5.25;61.75;101700.63;12794818;22;96563;-80
2023/01/30 06:26:45;;;;;;;4.10;2.60;;;;;;;5.25;60.99;101687.56;12794932;22;96629;-80
2023/01/30 06:31:49;;;;;;;4.65;2.60;;;;;;;5.21;61.41;101691.03;12794984;22;97266;-80
2023/01/30 06:36:53;;;;;;;3.60;2.28;;;;;;;5.18;62.03;101686.69;12794742;22;96681;-80
2023/01/30 06:41:56;;;;;;;5.50;2.60;;;;;;;5.23;60.87;101694.50;12795297;22;97009;-80
2023/01/30 06:46:59;;;;;;;5.60;2.72;;;;;;;5.23;61.17;101710.16;12794796;22;96492;-81
2023/01/30 06:52:04;;;;;;;5.38;2.65;;;;;;;5.22;62.07;101726.72;12795680;22;96512;-80
2023/01/30 06:57:07;;;;;;;3.00;2.42;;;;;;;5.13;61.42;101724.03;12794996;22;96542;-80
2023/01/30 07:02:13;;;;;;;3.83;2.47;;;;;;;5.15;62.12;101735.38;12794973;22;96493;-80
2023/01/30 07:07:17;;;;;;;4.10;2.70;;;;;;;5.07;62.10;101748.34;12793341;22;96586;-80
2023/01/30 07:12:21;;;;;;;3.17;2.20;;;;;;;5.07;61.96;101737.91;12794789;22;96515;-79
2023/01/30 07:17:24;;;;;;;3.92;2.20;;;;;;;5.07;62.88;101721.41;12794420;22;96594;-80
2023/01/30 07:22:29;;;;;;;4.07;2.42;;;;;;;4.95;63.17;101730.00;12793779;22;96714;-80
2023/01/30 07:27:32;;;;;;;3.47;2.67;;;;;;;4.94;63.25;101720.44;12794372;22;97072;-79
2023/01/30 07:32:35;;;;;;;4.35;2.35;;;;;;;4.90;63.49;101728.22;12794216;22;97349;-79
2023/01/30 07:37:40;;;;;;;4.40;2.70;;;;;;;4.87;63.92;101734.31;12794752;22;96671;-80
2023/01/30 07:42:43;;;;;;;3.43;2.47;;;;;;;4.88;63.53;101737.81;12795425;22;97186;-80
2023/01/30 07:47:47;;;;;;;3.97;2.58;;;;;;;4.97;62.89;101753.50;12794412;22;96588;-80
2023/01/30 07:52:52;;;;;;;4.35;2.75;;;;;;;4.90;63.44;101765.63;12794172;22;96639;-80
2023/01/30 07:57:55;;;;;;;3.10;2.38;;;;;;;4.86;63.67;101769.06;12792569;22;96773;-80
2023/01/30 08:02:58;;;;;;;3.47;2.40;;;;;;;4.83;63.44;101774.25;12794164;22;96645;-80
2023/01/30 08:08:03;;;;;;;3.83;2.55;;;;;;;4.84;63.98;101786.47;12794120;22;96574;-80
2023/01/30 08:13:06;;;;;;;3.87;2.60;;;;;;;4.84;64.18;101785.56;12794242;22;96807;-80
2023/01/30 08:18:09;;;;;;;5.20;2.63;;;;;;;4.82;63.55;101798.59;12759137;22;97742;-80
2023/01/30 08:23:14;;;;;;;4.47;2.72;;;;;;;4.85;64.01;101808.16;12730999;22;96654;-81
2023/01/30 08:28:17;;;;;;;3.90;2.90;;;;;;;4.79;64.54;101811.63;12731191;22;96604;-80
2023/01/30 08:33:21;;;;;;;3.85;2.70;;;;;;;4.79;64.72;101813.34;12732244;22;96590;-80
2023/01/30 08:38:25;;;;;;;4.05;2.70;;;;;;;4.80;64.30;101831.63;12727122;22;96586;-80
2023/01/30 08:43:28;;;;;;;3.23;2.63;;;;;;;4.93;63.47;101833.44;12731377;22;97392;-80
2023/01/30 08:48:32;;;;;;;3.85;2.90;;;;;;;5.15;62.66;101840.59;12729779;22;97374;-80
2023/01/30 08:53:52;;;;;;;3.65;2.90;;;;;;;5.31;62.81;101824.16;12730400;22;96803;-80
2023/01/30 08:58:55;;;;;;;5.90;3.17;;;;;;;5.43;61.86;101842.53;12730898;22;96530;-80
2023/01/30 09:03:58;;;;;;;6.03;3.30;;;;;;;5.66;60.77;101845.28;12730751;22;96664;-80
2023/01/30 09:09:03;;;;;;;4.18;2.67;;;;;;;5.84;60.09;101841.88;12730510;22;96924;-80
2023/01/30 09:14:06;;;;;;;3.50;3.00;;;;;;;5.94;59.89;101839.31;12730932;22;96654;-80
2023/01/30 09:19:10;;;;;;;5.43;3.50;;;;;;;6.17;59.37;101837.69;12777302;22;96661;-80
2023/01/30 09:24:14;;;;;;;4.95;3.20;;;;;;;6.25;59.08;101850.75;12794247;22;96579;-80
2023/01/30 09:29:17;;;;;;;4.37;2.73;;;;;;;6.42;58.48;101852.56;12792781;22;97132;-80
2023/01/30 09:34:26;;;;;;;5.45;2.83;;;;;;;6.50;56.98;101847.38;12792795;22;96936;-81
2023/01/30 09:39:30;;;;;;;5.93;3.90;;;;;;;6.53;57.26;101849.97;12791749;22;96567;-80
2023/01/30 09:44:52;;;;;;;5.57;3.73;;;;;;;6.55;56.62;101849.13;12792643;22;96483;-80
2023/01/30 09:50:05;;;;;;;5.50;3.70;;;;;;;6.69;56.57;101836.94;12795653;22;96570;-80
2023/01/30 09:55:18;;;;;;;5.57;3.85;;;;;;;6.80;56.42;101843.03;12795542;22;96662;-80
2023/01/30 10:00:27;;;;;;;5.00;3.50;;;;;;;6.96;56.90;101853.56;12795197;22;96714;-80
2023/01/30 10:05:37;;;;;;;5.18;3.58;;;;;;;7.11;56.01;101866.66;12795793;22;96612;-81
2023/01/30 10:10:48;;;;;;;5.43;3.38;;;;;;;7.17;55.47;101866.63;12795329;22;96597;-81
2023/01/30 10:16:11;;;;;;;6.82;4.38;;;;;;;7.17;55.42;101854.44;12795858;22;96510;-81
2023/01/30 10:21:23;;;;;;;5.80;3.67;;;;;;;7.27;55.30;101857.94;12794707;22;96498;-80
2023/01/30 10:26:30;;;;;;;12.43;10.60;;;;;;;7.36;55.01;101853.53;12795037;22;96625;-80
2023/01/30 10:31:40;;;;;;;6.18;3.92;;;;;;;7.48;55.12;101848.28;12794524;22;96851;-81
2023/01/30 10:36:51;;;;;;;4.93;3.20;;;;;;;7.41;54.60;101861.38;12794878;22;96638;-81
2023/01/30 10:42:11;;;;;;;6.93;4.30;;;;;;;7.50;54.59;101851.78;12795200;22;96601;-81
2023/01/30 10:47:31;;;;;;;6.95;3.67;;;;;;;7.59;54.00;101838.69;12794862;22;96615;-80
2023/01/30 10:52:56;;;;;;;4.38;3.30;;;;;;;7.67;54.13;101846.50;12794619;22;96768;-81
2023/01/30 10:58:14;;;;;;;6.22;4.10;;;;;;;7.81;53.67;101837.72;12794160;22;96579;-81
2023/01/30 11:03:24;;;;;;;7.65;4.82;;;;;;;7.81;53.70;101848.22;12795043;22;97336;-80
2023/01/30 11:08:29;;;;;;;5.78;3.70;;;;;;;7.99;53.44;101849.91;12795664;22;96583;-80
2023/01/30 11:13:34;;;;;;;6.28;3.47;;;;;;;7.96;53.40;101850.78;12794863;22;96903;-81
2023/01/30 11:18:45;;;;;;;9.20;5.17;;;;;;;8.16;53.35;101848.09;12793473;22;96877;-80
2023/01/30 11:24:17;;;;;;;4.90;3.40;;;;;;;8.17;52.48;101851.59;12788134;22;97039;-81
2023/01/30 11:29:30;;;;;;;5.13;3.60;;;;;;;8.23;53.17;101854.16;12794693;22;96985;-81
2023/01/30 11:34:33;;;;;;;5.65;3.05;;;;;;;8.35;52.51;101847.13;12794446;22;96578;-81
2023/01/30 11:39:36;;;;;;;5.78;3.80;;;;;;;8.48;52.46;101838.28;12794525;22;96855;-80
2023/01/30 11:44:42;;;;;;;5.55;4.10;;;;;;;8.67;52.73;101839.06;12794060;22;96620;-81
2023/01/30 11:49:51;;;;;;;4.68;3.55;;;;;;;8.50;52.09;101840.91;12794458;22;96818;-81
2023/01/30 11:55:17;;;;;;;10.73;5.47;;;;;;;8.79;51.90;101831.94;12793938;22;96640;-81
2023/01/30 12:00:24;;;;;;;5.57;4.10;;;;;;;8.89;51.85;101823.16;12795390;22;96560;-80
2023/01/30 12:05:33;;;;;;;8.27;5.25;;;;;;;8.95;51.42;101824.84;12794233;22;97279;-80
2023/01/30 12:10:41;;;;;;;5.68;4.30;;;;;;;9.08;51.72;101811.63;12793768;22;96659;-81
2023/01/30 12:15:49;;;;;;;6.00;4.60;;;;;;;9.24;51.26;101809.75;12792610;22;96521;-80
2023/01/30 12:20:58;;;;;;;5.25;3.55;;;;;;;9.06;51.09;101805.50;12793921;22;96652;-80
2023/01/30 12:26:10;;;;;;;5.65;3.70;;;;;;;9.09;50.22;101796.72;12794294;22;96670;-81
2023/01/30 12:31:21;;;;;;;5.15;3.83;;;;;;;9.15;50.25;101797.50;12793890;22;96581;-80
2023/01/30 12:36:34;;;;;;;6.03;3.90;;;;;;;9.39;50.11;101791.22;12793831;22;96569;-81
2023/01/30 12:42:03;;;;;;;6.68;3.83;;;;;;;9.55;49.25;101776.16;12793971;22;96566;-81
2023/01/30 12:47:31;;;;;;;8.05;4.40;;;;;;;9.68;49.21;101773.34;12793669;22;96592;-81
2023/01/30 12:52:56;;;;;;;6.95;4.20;;;;;;;10.12;48.69;101749.13;12794093;22;96562;-81
2023/01/30 12:58:03;;;;;;;6.63;4.00;;;;;;;10.44;48.46;101748.66;12790462;22;96713;-81
2023/01/30 13:03:23;;;;;;;4.95;3.78;;;;;;;10.73;47.35;101749.91;12793478;22;96674;-81
2023/01/30 13:08:50;;;;;;;4.88;3.65;;;;;;;11.44;46.63;101738.16;12792003;22;96637;-81
2023/01/30 13:14:03;;;;;;;5.78;3.53;;;;;;;11.78;44.27;101723.38;12793337;22;96758;-82
2023/01/30 13:19:16;;;;;;;4.82;3.47;;;;;;;12.27;42.35;101713.44;12792522;22;96839;-81
2023/01/30 13:24:29;;;;;;;8.27;3.90;;;;;;;13.37;41.01;101709.75;12795330;22;97190;-79
2023/01/30 13:29:37;;;;;;;3.90;3.30;;;;;;;13.39;40.35;101685.00;12795641;22;96735;-79
2023/01/30 13:34:46;;;;;;;5.97;3.08;;;;;;;13.30;39.93;101679.97;12795332;22;96723;-80
2023/01/30 13:39:53;;;;;;;4.55;3.30;;;;;;;12.77;40.82;101684.97;12795631;22;96711;-80
2023/01/30 13:44:59;;;;;;;6.47;4.63;;;;;;;13.02;41.03;101670.19;12795895;22;96640;-79
2023/01/30 13:50:23;;;;;;;4.97;3.75;;;;;;;13.88;38.79;101668.56;12795126;22;96951;-79
2023/01/30 13:55:35;;;;;;;4.28;3.15;;;;;;;14.28;38.21;101670.88;12795505;22;96595;-80
2023/01/30 14:00:38;;;;;;;4.40;3.47;;;;;;;14.88;37.69;101676.75;12794116;22;96716;-80
2023/01/30 14:06:14;;;;;;;3.70;3.08;;;;;;;15.07;37.20;101669.88;12795314;22;97460;-80
2023/01/30 14:11:47;;;;;;;5.13;3.55;;;;;;;14.76;36.78;101662.16;12748512;22;97105;-80
2023/01/30 14:16:52;;;;;;;4.80;3.75;;;;;;;14.88;37.12;101663.50;12770412;22;96885;-80
2023/01/30 14:21:58;;;;;;;9.60;6.53;;;;;;;14.74;37.03;101657.81;12795278;22;96664;-80
2023/01/30 14:27:23;;;;;;;5.22;3.67;;;;;;;14.59;36.56;101648.59;12795476;22;97000;-80
2023/01/30 14:32:51;;;;;;;4.50;2.97;;;;;;;15.13;36.57;101643.13;12794893;22;96510;-80
2023/01/30 14:38:11;;;;;;;4.35;3.17;;;;;;;15.45;35.41;101632.25;12796000;22;96718;-80
2023/01/30 14:43:53;;;;;;;4.15;3.40;;;;;;;15.06;35.83;101627.53;12794948;22;96516;-80
2023/01/30 14:49:03;;;;;;;4.55;3.03;;;;;;;15.46;35.30;101625.16;12789613;22;97003;-80
2023/01/30 14:54:22;;;;;;;5.82;3.53;;;;;;;15.49;35.76;101627.69;12787989;22;96614;-80
2023/01/30 14:59:36;;;;;;;3.92;3.22;;;;;;;15.91;34.99;101628.69;12795034;22;96641;-80
2023/01/30 15:04:43;;;;;;;4.30;3.50;;;;;;;16.01;34.39;101623.88;12794768;22;96699;-80
2023/01/30 15:09:55;;;;;;;4.75;3.50;;;;;;;15.31;35.84;101634.56;12794657;22;96460;-80
2023/01/30 15:15:11;;;;;;;3.33;2.70;;;;;;;15.37;35.10;101628.16;12795457;22;97072;-80
2023/01/30 15:20:28;;;;;;;5.43;3.50;;;;;;;15.04;36.06;101627.59;12794404;22;96745;-80
2023/01/30 15:25:46;;;;;;;4.63;3.53;;;;;;;14.71;36.46;101623.47;12794435;22;96591;-79
2023/01/30 15:31:00;;;;;;;4.50;3.22;;;;;;;14.63;36.51;101614.91;12795330;22;96630;-80
2023/01/30 15:36:19;;;;;;;3.78;3.00;;;;;;;14.16;37.29;101620.97;12794356;22;96647;-80
2023/01/30 15:41:24;;;;;;;4.25;3.53;;;;;;;14.40;37.42;101615.69;12794392;22;96560;-80
2023/01/30 15:46:36;;;;;;;4.47;3.50;;;;;;;14.42;37.39;101620.97;12792888;22;97003;-80
2023/01/30 15:51:39;;;;;;;4.97;3.45;;;;;;;14.30;38.47;101618.69;12794059;22;96641;-80
2023/01/30 15:56:47;;;;;;;6.45;3.85;;;;;;;13.99;38.20;101608.22;12794416;22;96581;-80
2023/01/30 16:01:59;;;;;;;5.00;3.40;;;;;;;13.79;38.43;101618.56;12794359;22;96639;-80
2023/01/30 16:07:14;;;;;;;6.07;3.83;;;;;;;13.57;38.93;101626.28;12794224;22;96656;-79
2023/01/30 16:12:26;;;;;;;5.53;3.45;;;;;;;13.59;39.02;101632.41;12794096;22;96581;-80
2023/01/30 16:17:31;;;;;;;5.72;3.38;;;;;;;13.44;39.46;101635.50;12794134;22;97828;-80
2023/01/30 16:22:35;;;;;;;;;;;;;;;13.09;40.22;101642.69;12795571;22;96494;-80
2023/01/30 16:27:40;;;;;;;5.38;3.38;;;;;;;13.42;40.17;101650.53;12794729;22;96762;-79
2023/01/30 16:32:43;;;;;;;4.80;3.53;;;;;;;13.34;40.20;101654.31;12793843;22;96944;-81
2023/01/30 16:37:46;;;;;;;6.30;3.88;;;;;;;13.17;41.08;101660.06;12792645;22;96644;-82
2023/01/30 16:42:59;;;;;;;6.22;4.13;;;;;;;12.75;41.31;101671.81;12793968;22;96612;-81
2023/01/30 16:48:24;;;;;;;5.93;4.03;;;;;;;12.50;42.06;101687.38;12793685;22;96542;-81
2023/01/30 16:53:29;;;;;;;6.43;3.90;;;;;;;12.35;42.15;101686.88;12793343;22;96983;-81
2023/01/30 16:58:36;;;;;;;51.13;24.33;;;;;;;12.16;42.51;101696.13;12793703;22;97066;-81
2023/01/30 17:03:42;;;;;;;892.08;366.27;;;;;;;12.11;43.33;101708.56;12793902;22;96762;-81
2023/01/30 17:08:49;;;;;;;169.43;60.70;;;;;;;11.93;43.41;101712.47;12792992;22;97269;-80
2023/01/30 17:14:10;;;;;;;74.53;30.70;;;;;;;11.59;45.22;101719.38;12794116;22;96670;-81
2023/01/30 17:19:14;;;;;;;105.53;41.13;;;;;;;11.48;45.10;101723.97;12792337;22;96615;-81
2023/01/30 17:24:20;;;;;;;10.52;6.50;;;;;;;11.29;45.03;101726.13;12793474;22;96797;-81
2023/01/30 17:29:25;;;;;;;10.07;6.53;;;;;;;11.12;45.17;101737.84;12792215;22;97136;-81
2023/01/30 17:34:44;;;;;;;14.80;7.72;;;;;;;10.96;46.30;101746.88;12792810;22;96714;-81
2023/01/30 17:39:47;;;;;;;14.73;8.38;;;;;;;10.82;47.28;101752.41;12792918;22;96698;-81
2023/01/30 17:44:52;;;;;;;13.00;7.10;;;;;;;10.74;47.28;101756.06;12792826;22;96638;-81
2023/01/30 17:49:56;;;;;;;11.43;7.10;;;;;;;10.59;47.62;101753.69;12792335;22;96533;-80
2023/01/30 17:54:59;;;;;;;14.93;7.05;;;;;;;10.53;48.27;101756.38;12792707;22;96569;-81
2023/01/30 18:00:04;;;;;;;11.88;7.03;;;;;;;10.45;47.80;101763.53;12792657;22;97041;-80
2023/01/30 18:05:09;;;;;;;13.98;8.20;;;;;;;10.33;49.07;101779.50;12793068;22;96569;-80
2023/01/30 18:10:16;;;;;;;11.70;7.30;;;;;;;10.22;49.28;101771.78;12795105;22;96692;-81
2023/01/30 18:15:21;;;;;;;15.98;10.27;;;;;;;10.12;49.28;101783.31;12795108;22;96569;-81
2023/01/30 18:20:24;;;;;;;12.60;8.27;;;;;;;10.04;50.41;101782.53;12793212;22;98126;-81
2023/01/30 18:25:27;;;;;;;19.98;11.45;;;;;;;9.86;51.35;101799.44;12795116;22;96592;-81
2023/01/30 18:30:32;;;;;;;17.33;10.57;;;;;;;9.61;52.82;101810.22;12794716;22;96785;-80
2023/01/30 18:35:37;;;;;;;16.02;10.20;;;;;;;9.39;53.60;101813.97;12795154;22;96573;-81
2023/01/30 18:40:40;;;;;;;;;;;;;;;9.20;54.15;101815.00;12795696;22;96585;-81
2023/01/30 18:45:45;;;;;;;19.58;11.93;;;;;;;9.09;54.72;101820.34;12795172;22;97293;-80
2023/01/30 18:50:48;;;;;;;17.88;11.45;;;;;;;8.88;55.37;101821.38;12794776;22;96880;-80
2023/01/30 18:55:51;;;;;;;15.77;10.15;;;;;;;8.71;56.40;101822.41;12795952;22;96592;-80
2023/01/30 19:00:56;;;;;;;20.33;11.88;;;;;;;8.62;56.37;101830.34;12795084;22;97444;-80
2023/01/30 19:06:01;;;;;;;23.60;12.63;;;;;;;8.63;56.12;101832.09;12794756;22;96969;-80
2023/01/30 19:13:31;;;;;;;23.38;14.48;;;;;;;8.65;55.83;101835.56;12793581;22;97094;-80
2023/01/30 19:16:32;;;;;;;20.10;12.57;;;;;;;8.62;56.05;101831.19;12795060;22;97042;-80
2023/01/30 19:21:36;;;;;;;20.63;11.82;;;;;;;8.62;56.31;101830.34;12793700;22;96743;-80
2023/01/30 19:26:40;;;;;;;18.17;12.50;;;;;;;8.41;57.07;101831.31;12794832;22;97034;-80
2023/01/30 19:31:45;;;;;;;20.10;13.82;;;;;;;8.30;57.63;101842.78;12794445;22;96540;-80
2023/01/30 19:36:49;;;;;;;26.83;15.93;;;;;;;8.09;59.60;101848.09;12794344;22;96537;-80
2023/01/30 19:41:52;;;;;;;35.53;20.67;;;;;;;7.81;60.99;101842.97;12794991;22;96597;-81
2023/01/30 19:46:57;;;;;;;45.47;24.00;;;;;;;7.74;61.71;101840.38;12795719;22;97007;-80
2023/01/30 19:52:01;;;;;;;40.60;22.73;;;;;;;7.75;61.40;101839.50;12794429;22;96658;-80
2023/01/30 19:57:04;;;;;;;36.83;21.50;;;;;;;7.67;61.28;101852.63;12794626;22;96663;-80
2023/01/30 20:02:13;;;;;;;30.83;20.27;;;;;;;7.55;61.60;101843.91;12793240;22;96905;-80
2023/01/30 20:07:16;;;;;;;36.70;21.83;;;;;;;7.55;61.46;101843.91;12794276;22;96700;-80
2023/01/30 20:12:20;;;;;;;39.10;23.65;;;;;;;7.43;62.06;101843.94;12793899;22;96572;-80
2023/01/30 20:17:25;;;;;;;46.70;25.47;;;;;;;7.32;62.30;101843.09;12794234;22;96546;-80
2023/01/30 20:22:28;;;;;;;39.83;22.48;;;;;;;7.25;62.67;101854.44;12793930;22;96837;-80
2023/01/30 20:27:32;;;;;;;32.35;19.75;;;;;;;7.15;63.42;101860.53;12793968;22;96836;-80
2023/01/30 20:32:39;;;;;;;;;;;;;;;6.99;65.14;101866.66;12794368;22;96461;-80
2023/01/30 20:37:42;;;;;;;34.33;21.00;;;;;;;6.97;63.74;101865.78;12795337;22;96586;-80
2023/01/30 20:42:47;;;;;;;32.78;20.27;;;;;;;6.85;65.60;101869.25;12794177;22;96694;-80
2023/01/30 20:47:52;;;;;;;38.55;21.42;;;;;;;6.67;66.85;101872.69;12793673;22;96525;-80
2023/01/30 20:52:55;;;;;;;33.13;19.53;;;;;;;6.59;66.56;101879.63;12792264;22;96894;-80
2023/01/30 20:57:58;;;;;;;33.70;20.40;;;;;;;6.55;67.39;101879.63;12793610;22;96707;-80
2023/01/30 21:03:03;;;;;;;32.25;19.45;;;;;;;6.52;66.68;101883.09;12793367;22;96574;-80
2023/01/30 21:08:06;;;;;;;36.70;21.47;;;;;;;6.41;68.00;101887.44;12793423;22;96751;-80
2023/01/30 21:13:09;;;;;;;32.75;20.15;;;;;;;6.25;69.32;101896.09;12793180;22;96539;-80
2023/01/30 21:18:14;;;;;;;30.13;19.63;;;;;;;6.13;70.12;101901.25;12792749;22;96657;-80
2023/01/30 21:23:17;;;;;;;31.03;19.17;;;;;;;6.11;70.58;101905.59;12792784;22;96704;-80
2023/01/30 21:28:21;;;;;;;26.02;16.33;;;;;;;6.09;69.61;101906.47;12793817;22;96538;-80
2023/01/30 21:33:25;;;;;;;27.13;14.95;;;;;;;6.10;69.65;101911.69;12792632;22;96698;-80
2023/01/30 21:43:50;;;;;;;24.75;15.43;;;;;;;6.08;69.44;101915.16;12793200;22;96727;-80
2023/01/30 21:48:54;;;;;;;22.83;14.50;;;;;;;6.11;69.77;101909.97;12794665;22;96621;-79
2023/01/30 21:54:00;;;;;;;24.05;16.85;;;;;;;6.16;68.14;101911.72;12795413;22;96814;-80
2023/01/30 21:59:05;;;;;;;22.75;15.68;;;;;;;5.98;69.94;101916.88;12795660;22;96577;-80
2023/01/30 22:04:13;;;;;;;21.00;13.43;;;;;;;5.92;69.80;101914.19;12795535;22;96525;-80
2023/01/30 22:09:16;;;;;;;19.25;13.30;;;;;;;5.94;69.49;101917.72;12795176;22;96841;-80
2023/01/30 22:14:20;;;;;;;18.15;12.70;;;;;;;5.95;69.54;101929.03;12795555;22;96755;-80
2023/01/30 22:19:24;;;;;;;18.55;12.82;;;;;;;5.97;68.72;101929.94;12795716;22;96703;-80
2023/01/30 22:24:28;;;;;;;286.63;182.03;;;;;;;5.99;69.67;101929.06;12795020;22;96713;-80
2023/01/30 22:29:31;;;;;;;35.25;24.52;;;;;;;5.96;69.11;101928.16;12795006;22;96929;-80
2023/01/30 22:34:36;;;;;;;36.72;25.30;;;;;;;6.02;69.27;101936.06;12793809;22;96538;-80
2023/01/30 22:39:40;;;;;;;27.35;16.70;;;;;;;5.97;69.13;101938.63;12795134;22;96515;-80
2023/01/30 22:44:43;;;;;;;23.48;15.02;;;;;;;6.02;69.22;101941.28;12794908;22;96712;-80
2023/01/30 22:49:48;;;;;;;20.52;13.68;;;;;;;5.98;69.23;101942.09;12794390;22;97079;-80
2023/01/30 22:54:51;;;;;;;23.10;15.53;;;;;;;5.85;69.05;101938.53;12794828;22;96463;-80
2023/01/30 22:59:54;;;;;;;20.52;14.60;;;;;;;5.89;68.58;101944.66;12795021;22;96646;-80
2023/01/30 23:04:59;;;;;;;24.23;16.02;;;;;;;5.76;69.83;101945.47;12795247;22;96588;-80
2023/01/30 23:10:02;;;;;;;25.47;20.37;;;;;;;5.77;69.80;101945.47;12796148;22;96579;-80
2023/01/30 23:15:06;;;;;;;22.08;14.93;;;;;;;5.87;69.27;101944.66;12795251;22;96774;-80
2023/01/30 23:20:12;;;;;;;29.00;23.07;;;;;;;5.89;69.38;101942.03;12794293;22;96983;-80
2023/01/30 23:25:15;;;;;;;135.35;92.72;;;;;;;5.75;69.79;101947.19;12793440;22;96610;-80
2023/01/30 23:30:19;;;;;;;26.73;17.67;;;;;;;5.78;70.22;101949.81;12794038;22;96504;-80
2023/01/30 23:35:24;;;;;;;54.42;37.83;;;;;;;5.74;69.67;101945.44;12794204;22;96555;-80
2023/01/30 23:40:27;;;;;;;71.03;44.07;;;;;;;5.82;69.25;101955.94;12794412;22;96877;-80
2023/01/30 23:45:31;;;;;;;52.30;32.97;;;;;;;5.89;68.47;101957.72;12794324;22;96580;-80
2023/01/30 23:50:36;;;;;;;27.10;18.98;;;;;;;5.92;68.65;101966.44;12794044;22;96561;-80